createdAt,value
2018-07-21T00:00:10.882Z,1001.69
2018-07-21T00:00:51.334Z,1001.71
2018-07-21T00:01:31.785Z,1001.72
2018-07-21T00:02:12.130Z,1001.73
2018-07-21T00:02:52.496Z,1001.72
2018-07-21T00:03:32.897Z,1001.77
2018-07-21T00:04:13.312Z,1001.73
2018-07-21T00:04:53.717Z,1001.68
2018-07-21T00:05:34.146Z,1001.74
2018-07-21T00:06:14.578Z,1001.74
2018-07-21T00:06:54.925Z,1001.74
2018-07-21T00:07:35.289Z,1001.7
2018-07-21T00:08:15.695Z,1001.71
2018-07-21T00:10:28.523Z,1001.72
2018-07-21T00:11:08.821Z,1001.69
2018-07-21T00:11:49.228Z,1001.65
2018-07-21T00:12:29.584Z,1001.64
2018-07-21T00:13:10.028Z,1001.64
2018-07-21T00:13:50.427Z,1001.66
2018-07-21T00:14:30.802Z,1001.61
2018-07-21T00:15:11.204Z,1001.62
2018-07-21T00:15:51.636Z,1001.59
2018-07-21T00:16:32.043Z,1001.62
2018-07-21T00:17:12.533Z,1001.58
2018-07-21T00:17:52.826Z,1001.61
2018-07-21T00:18:33.211Z,1001.62
2018-07-21T00:19:13.633Z,1001.64
2018-07-21T00:19:54.093Z,1001.65
2018-07-21T00:20:34.413Z,1001.65
2018-07-21T00:21:14.895Z,1001.66
2018-07-21T00:21:55.222Z,1001.64
2018-07-21T00:22:35.676Z,1001.69
2018-07-21T00:23:16.006Z,1001.59
2018-07-21T00:25:36.279Z,1001.59
2018-07-21T00:26:16.608Z,1001.66
2018-07-21T00:26:57.052Z,1001.62
2018-07-21T00:27:37.435Z,1001.66
2018-07-21T00:28:17.855Z,1001.68
2018-07-21T00:28:58.204Z,1001.67
2018-07-21T00:29:38.755Z,1001.68
2018-07-21T00:30:19.161Z,1001.64
2018-07-21T00:30:59.613Z,1001.67
2018-07-21T00:31:39.970Z,1001.63
2018-07-21T00:32:20.387Z,1001.65
2018-07-21T00:33:00.848Z,1001.65
2018-07-21T00:33:41.253Z,1001.65
2018-07-21T00:34:21.600Z,1001.68
2018-07-21T00:35:02.098Z,1001.67
2018-07-21T00:35:42.538Z,1001.64
2018-07-21T00:36:22.872Z,1001.64
2018-07-21T00:37:03.273Z,1001.67
2018-07-21T00:37:43.676Z,1001.67
2018-07-21T00:38:24.067Z,1001.62
2018-07-21T00:39:04.497Z,1001.66
2018-07-21T00:39:44.908Z,1001.67
2018-07-21T00:40:25.373Z,1001.69
2018-07-21T00:41:05.756Z,1001.7
2018-07-21T00:41:46.099Z,1001.67
2018-07-21T00:42:26.492Z,1001.68
2018-07-21T00:43:06.922Z,1001.67
2018-07-21T00:43:47.310Z,1001.69
2018-07-21T00:44:27.740Z,1001.68
2018-07-21T00:45:08.211Z,1001.65
2018-07-21T00:45:48.600Z,1001.63
2018-07-21T00:46:29.068Z,1001.63
2018-07-21T00:47:09.492Z,1001.65
2018-07-21T00:47:49.912Z,1001.69
2018-07-21T00:48:30.408Z,1001.65
2018-07-21T00:49:10.758Z,1001.63
2018-07-21T00:49:51.176Z,1001.63
2018-07-21T00:50:31.800Z,1001.65
2018-07-21T00:52:44.931Z,1001.71
2018-07-21T00:53:25.346Z,1001.7
2018-07-21T00:54:05.681Z,1001.66
2018-07-21T00:54:46.111Z,1001.66
2018-07-21T00:55:26.543Z,1001.67
2018-07-21T00:56:07.164Z,1001.65
2018-07-21T00:56:47.404Z,1001.64
2018-07-21T00:57:28.403Z,1001.63
2018-07-21T00:58:09.137Z,1001.62
2018-07-21T00:58:49.526Z,1001.63
2018-07-21T00:59:29.917Z,1001.62
2018-07-21T01:00:10.309Z,1001.62
2018-07-21T01:00:51.152Z,1001.62
2018-07-21T01:01:31.231Z,1001.63
2018-07-21T01:02:11.661Z,1001.61
2018-07-21T01:02:52.073Z,1001.63
2018-07-21T01:03:32.514Z,1001.63
2018-07-21T01:04:12.860Z,1001.61
2018-07-21T01:04:53.314Z,1001.63
2018-07-21T01:05:33.694Z,1001.64
2018-07-21T01:06:14.189Z,1001.62
2018-07-21T01:06:54.652Z,1001.65
2018-07-21T01:07:35.020Z,1001.65
2018-07-21T01:08:15.429Z,1001.64
2018-07-21T01:10:07.904Z,1001.65
2018-07-21T01:10:48.259Z,1001.65
2018-07-21T01:14:38.394Z,1001.59
2018-07-21T01:17:06.147Z,1001.58
2018-07-21T01:17:46.450Z,1001.58
2018-07-21T01:18:26.882Z,1001.56
2018-07-21T01:19:07.278Z,1001.51
2018-07-21T01:19:47.689Z,1001.54
2018-07-21T01:20:28.127Z,1001.54
2018-07-21T01:21:08.573Z,1001.48
2018-07-21T01:21:48.888Z,1001.48
2018-07-21T01:22:29.364Z,1001.46
2018-07-21T01:23:09.793Z,1001.42
2018-07-21T01:23:50.229Z,1001.46
2018-07-21T01:24:30.652Z,1001.44
2018-07-21T01:25:11.046Z,1001.4
2018-07-21T01:25:51.484Z,1001.43
2018-07-21T01:26:31.887Z,1001.45
2018-07-21T01:29:00.838Z,1001.48
2018-07-21T01:29:41.573Z,1001.47
2018-07-21T01:30:21.707Z,1001.49
2018-07-21T01:31:02.095Z,1001.51
2018-07-21T01:31:42.476Z,1001.52
2018-07-21T01:32:22.863Z,1001.53
2018-07-21T01:33:03.278Z,1001.51
2018-07-21T01:33:43.744Z,1001.49
2018-07-21T01:34:24.132Z,1001.5
2018-07-21T01:39:40.454Z,1001.34
2018-07-21T01:40:21.000Z,1001.34
2018-07-21T01:41:01.354Z,1001.3
2018-07-21T01:43:19.304Z,1001.34
2018-07-21T01:43:58.013Z,1001.35
2018-07-21T01:44:38.443Z,1001.4
2018-07-21T01:45:18.852Z,1001.44
2018-07-21T01:45:59.245Z,1001.5
2018-07-21T01:46:39.696Z,1001.44
2018-07-21T01:47:20.073Z,1001.48
2018-07-21T01:48:00.514Z,1001.49
2018-07-21T01:48:40.920Z,1001.49
2018-07-21T01:49:21.276Z,1001.48
2018-07-21T01:50:01.711Z,1001.44
2018-07-21T01:50:42.105Z,1001.45
2018-07-21T01:51:22.557Z,1001.43
2018-07-21T01:52:02.926Z,1001.39
2018-07-21T01:52:43.360Z,1001.39
2018-07-21T01:53:23.771Z,1001.43
2018-07-21T01:54:04.193Z,1001.38
2018-07-21T01:54:44.601Z,1001.38
2018-07-21T01:55:25.078Z,1001.41
2018-07-21T01:56:05.388Z,1001.4
2018-07-21T01:56:45.845Z,1001.43
2018-07-21T01:57:26.205Z,1001.43
2018-07-21T01:58:06.631Z,1001.47
2018-07-21T01:58:47.047Z,1001.44
2018-07-21T01:59:27.452Z,1001.44
2018-07-21T02:00:07.877Z,1001.42
2018-07-21T02:00:48.315Z,1001.44
2018-07-21T02:01:28.670Z,1001.43
2018-07-21T02:02:09.082Z,1001.42
2018-07-21T02:02:49.471Z,1001.43
2018-07-21T02:03:29.904Z,1001.44
2018-07-21T02:04:10.314Z,1001.44
2018-07-21T02:04:50.766Z,1001.43
2018-07-21T02:05:31.228Z,1001.42
2018-07-21T02:06:11.674Z,1001.44
2018-07-21T02:06:52.103Z,1001.45
2018-07-21T02:07:32.463Z,1001.41
2018-07-21T02:08:12.931Z,1001.48
2018-07-21T02:08:53.388Z,1001.42
2018-07-21T02:09:33.738Z,1001.44
2018-07-21T02:10:14.212Z,1001.48
2018-07-21T02:10:54.605Z,1001.48
2018-07-21T02:11:35.066Z,1001.47
2018-07-21T02:12:15.504Z,1001.45
2018-07-21T02:12:55.911Z,1001.48
2018-07-21T02:13:36.352Z,1001.46
2018-07-21T02:14:16.840Z,1001.47
2018-07-21T02:14:57.235Z,1001.44
2018-07-21T02:15:37.603Z,1001.46
2018-07-21T02:17:55.346Z,1001.38
2018-07-21T02:18:35.724Z,1001.41
2018-07-21T02:19:16.255Z,1001.38
2018-07-21T02:19:56.596Z,1001.36
2018-07-21T02:20:36.999Z,1001.35
2018-07-21T02:21:17.458Z,1001.35
2018-07-21T02:21:57.873Z,1001.37
2018-07-21T02:24:15.447Z,1001.37
2018-07-21T02:24:53.161Z,1001.37
2018-07-21T02:25:33.499Z,1001.37
2018-07-21T02:26:13.913Z,1001.36
2018-07-21T02:26:54.271Z,1001.38
2018-07-21T02:27:34.674Z,1001.36
2018-07-21T02:28:15.092Z,1001.37
2018-07-21T02:28:55.566Z,1001.34
2018-07-21T02:29:35.874Z,1001.33
2018-07-21T02:30:16.317Z,1001.32
2018-07-21T02:30:56.679Z,1001.33
2018-07-21T02:31:37.132Z,1001.3
2018-07-21T02:32:17.459Z,1001.34
2018-07-21T02:32:57.933Z,1001.26
2018-07-21T02:33:38.268Z,1001.25
2018-07-21T02:34:18.638Z,1001.23
2018-07-21T02:34:59.028Z,1001.25
2018-07-21T02:35:39.485Z,1001.27
2018-07-21T02:36:19.879Z,1001.24
2018-07-21T02:37:00.321Z,1001.24
2018-07-21T02:37:40.760Z,1001.22
2018-07-21T02:38:21.165Z,1001.26
2018-07-21T02:39:01.621Z,1001.24
2018-07-21T02:39:42.071Z,1001.21
2018-07-21T02:40:22.433Z,1001.23
2018-07-21T02:41:02.829Z,1001.24
2018-07-21T02:41:43.288Z,1001.25
2018-07-21T02:42:23.680Z,1001.22
2018-07-21T02:43:04.070Z,1001.26
2018-07-21T02:43:44.463Z,1001.27
2018-07-21T02:44:24.911Z,1001.26
2018-07-21T02:45:05.259Z,1001.24
2018-07-21T02:45:45.896Z,1001.29
2018-07-21T02:46:26.124Z,1001.27
2018-07-21T02:47:06.580Z,1001.32
2018-07-21T02:47:47.049Z,1001.27
2018-07-21T02:48:27.464Z,1001.3
2018-07-21T02:49:07.920Z,1001.3
2018-07-21T02:49:48.284Z,1001.28
2018-07-21T02:51:42.078Z,1001.27
2018-07-21T02:52:22.334Z,1001.23
2018-07-21T02:53:02.819Z,1001.21
2018-07-21T02:53:43.167Z,1001.24
2018-07-21T02:54:23.667Z,1001.21
2018-07-21T02:55:04.007Z,1001.21
2018-07-21T02:55:44.498Z,1001.18
2018-07-21T02:56:24.859Z,1001.22
2018-07-21T02:57:05.255Z,1001.21
2018-07-21T02:57:45.616Z,1001.22
2018-07-21T02:58:26.078Z,1001.2
2018-07-21T02:59:06.389Z,1001.24
2018-07-21T02:59:46.832Z,1001.21
2018-07-21T03:00:27.235Z,1001.27
2018-07-21T03:01:07.627Z,1001.26
2018-07-21T03:01:48.040Z,1001.28
2018-07-21T03:02:28.393Z,1001.24
2018-07-21T03:03:08.795Z,1001.29
2018-07-21T03:03:49.332Z,1001.25
2018-07-21T03:04:29.701Z,1001.25
2018-07-21T03:05:10.184Z,1001.23
2018-07-21T03:05:50.523Z,1001.27
2018-07-21T03:06:30.927Z,1001.25
2018-07-21T03:07:11.344Z,1001.21
2018-07-21T03:07:51.751Z,1001.19
2018-07-21T03:08:32.188Z,1001.17
2018-07-21T03:09:12.574Z,1001.17
2018-07-21T03:09:53.072Z,1001.14
2018-07-21T03:10:33.463Z,1001.16
2018-07-21T03:11:13.927Z,1001.17
2018-07-21T03:11:54.293Z,1001.18
2018-07-21T03:12:34.714Z,1001.18
2018-07-21T03:13:15.163Z,1001.2
2018-07-21T03:13:55.620Z,1001.21
2018-07-21T03:14:35.970Z,1001.21
2018-07-21T03:15:16.393Z,1001.19
2018-07-21T03:15:56.889Z,1001.2
2018-07-21T03:16:37.309Z,1001.18
2018-07-21T03:17:17.690Z,1001.19
2018-07-21T03:17:58.118Z,1001.2
2018-07-21T03:18:38.529Z,1001.21
2018-07-21T03:19:18.980Z,1001.24
2018-07-21T03:19:59.355Z,1001.19
2018-07-21T03:20:39.746Z,1001.2
2018-07-21T03:21:20.231Z,1001.23
2018-07-21T03:22:00.518Z,1001.2
2018-07-21T03:22:41.003Z,1001.21
2018-07-21T03:23:21.468Z,1001.2
2018-07-21T03:24:01.873Z,1001.21
2018-07-21T03:24:42.262Z,1001.2
2018-07-21T03:25:22.641Z,1001.2
2018-07-21T03:26:03.088Z,1001.18
2018-07-21T03:26:43.466Z,1001.2
2018-07-21T03:27:23.934Z,1001.21
2018-07-21T03:28:04.279Z,1001.24
2018-07-21T03:28:44.839Z,1001.19
2018-07-21T03:29:25.161Z,1001.17
2018-07-21T03:30:05.700Z,1001.18
2018-07-21T03:30:46.079Z,1001.14
2018-07-21T03:31:26.447Z,1001.19
2018-07-21T03:32:06.846Z,1001.19
2018-07-21T03:32:47.398Z,1001.19
2018-07-21T03:33:27.729Z,1001.2
2018-07-21T03:34:08.225Z,1001.18
2018-07-21T03:34:48.506Z,1001.21
2018-07-21T03:35:28.930Z,1001.21
2018-07-21T03:36:09.286Z,1001.23
2018-07-21T03:36:49.718Z,1001.22
2018-07-21T03:37:30.152Z,1001.18
2018-07-21T03:38:10.560Z,1001.21
2018-07-21T03:38:51.003Z,1001.22
2018-07-21T03:39:31.348Z,1001.17
2018-07-21T03:40:11.722Z,1001.22
2018-07-21T03:40:52.210Z,1001.17
2018-07-21T03:41:32.602Z,1001.23
2018-07-21T03:42:12.955Z,1001.2
2018-07-21T03:42:53.369Z,1001.16
2018-07-21T03:43:33.825Z,1001.2
2018-07-21T03:44:14.190Z,1001.2
2018-07-21T03:44:54.708Z,1001.19
2018-07-21T03:45:35.061Z,1001.2
2018-07-21T03:46:15.521Z,1001.22
2018-07-21T03:46:55.870Z,1001.19
2018-07-21T03:47:36.295Z,1001.2
2018-07-21T03:48:16.757Z,1001.22
2018-07-21T03:48:57.099Z,1001.23
2018-07-21T03:49:37.503Z,1001.24
2018-07-21T03:50:17.978Z,1001.23
2018-07-21T03:50:58.347Z,1001.24
2018-07-21T03:51:38.757Z,1001.26
2018-07-21T03:52:19.181Z,1001.25
2018-07-21T03:52:59.653Z,1001.29
2018-07-21T03:53:40.139Z,1001.29
2018-07-21T03:54:20.657Z,1001.29
2018-07-21T03:55:01.319Z,1001.28
2018-07-21T03:56:30.307Z,1001.26
2018-07-21T03:57:14.359Z,1001.28
2018-07-21T03:57:53.627Z,1001.26
2018-07-21T03:58:34.078Z,1001.24
2018-07-21T03:59:14.463Z,1001.2
2018-07-21T03:59:54.865Z,1001.22
2018-07-21T04:00:35.336Z,1001.24
2018-07-21T04:01:15.842Z,1001.22
2018-07-21T04:01:56.148Z,1001.21
2018-07-21T04:02:36.576Z,1001.24
2018-07-21T04:03:16.966Z,1001.23
2018-07-21T04:03:57.370Z,1001.28
2018-07-21T04:45:11.733Z,1001.44
2018-07-21T04:45:50.096Z,1001.47
2018-07-21T04:46:30.524Z,1001.5
2018-07-21T04:47:10.897Z,1001.51
2018-07-21T04:47:51.402Z,1001.52
2018-07-21T04:48:31.797Z,1001.57
2018-07-21T04:49:13.137Z,1001.58
2018-07-21T04:49:53.272Z,1001.59
2018-07-21T04:50:33.903Z,1001.6
2018-07-21T04:51:14.374Z,1001.6
2018-07-21T04:51:54.712Z,1001.65
2018-07-21T04:52:35.324Z,1001.62
2018-07-21T04:53:15.682Z,1001.64
2018-07-21T04:53:56.103Z,1001.63
2018-07-21T04:54:36.406Z,1001.66
2018-07-21T04:55:16.848Z,1001.65
2018-07-21T04:55:57.193Z,1001.64
2018-07-21T04:56:37.628Z,1001.69
2018-07-21T04:57:18.013Z,1001.68
2018-07-21T04:59:46.117Z,1001.74
2018-07-21T05:00:26.314Z,1001.74
2018-07-21T05:01:06.891Z,1001.74
2018-07-21T05:01:47.312Z,1001.78
2018-07-21T05:02:27.826Z,1001.75
2018-07-21T05:20:52.381Z,1001.7
2018-07-21T05:21:31.622Z,1001.74
2018-07-21T05:22:12.072Z,1001.74
2018-07-21T05:22:52.622Z,1001.76
2018-07-21T05:23:32.873Z,1001.78
2018-07-21T05:24:13.303Z,1001.75
2018-07-21T05:24:53.939Z,1001.75
2018-07-21T05:25:34.184Z,1001.78
2018-07-21T05:26:14.621Z,1001.8
2018-07-21T05:26:55.012Z,1001.8
2018-07-21T05:27:35.504Z,1001.77
2018-07-21T05:28:15.887Z,1001.8
2018-07-21T05:28:56.481Z,1001.77
2018-07-21T05:29:36.818Z,1001.81
2018-07-21T05:30:17.275Z,1001.81
2018-07-21T05:30:57.820Z,1001.83
2018-07-21T05:31:38.143Z,1001.84
2018-07-21T05:32:18.652Z,1001.87
2018-07-21T05:32:59.026Z,1001.83
2018-07-21T05:33:39.474Z,1001.85
2018-07-21T05:34:20.016Z,1001.8
2018-07-21T05:35:00.450Z,1001.8
2018-07-21T05:35:40.812Z,1001.77
2018-07-21T05:36:21.176Z,1001.76
2018-07-21T05:37:01.640Z,1001.76
2018-07-21T05:37:42.080Z,1001.8
2018-07-21T05:38:22.385Z,1001.75
2018-07-21T05:39:02.938Z,1001.78
2018-07-21T05:39:43.295Z,1001.8
2018-07-21T05:40:23.709Z,1001.82
2018-07-21T05:41:04.109Z,1001.82
2018-07-21T05:41:44.585Z,1001.82
2018-07-21T05:42:24.989Z,1001.85
2018-07-21T05:43:05.405Z,1001.83
2018-07-21T05:43:45.786Z,1001.82
2018-07-21T05:44:26.217Z,1001.83
2018-07-21T05:45:06.694Z,1001.85
2018-07-21T05:45:47.093Z,1001.87
2018-07-21T05:46:27.522Z,1001.87
2018-07-21T05:47:07.962Z,1001.87
2018-07-21T05:47:48.344Z,1001.9
2018-07-21T05:48:28.805Z,1001.87
2018-07-21T05:49:09.195Z,1001.9
2018-07-21T05:49:49.659Z,1001.84
2018-07-21T05:50:30.139Z,1001.88
2018-07-21T05:51:10.431Z,1001.9
2018-07-21T05:51:50.765Z,1001.9
2018-07-21T05:52:31.220Z,1001.93
2018-07-21T05:53:11.721Z,1001.95
2018-07-21T05:53:52.126Z,1001.95
2018-07-21T05:54:32.504Z,1001.97
2018-07-21T05:55:12.908Z,1001.96
2018-07-21T05:55:53.333Z,1001.98
2018-07-21T05:56:33.739Z,1001.99
2018-07-21T05:57:14.231Z,1002.01
2018-07-21T05:57:54.613Z,1002.01
2018-07-21T05:58:35.077Z,1001.99
2018-07-21T05:59:15.391Z,1002.02
2018-07-21T05:59:55.777Z,1002.05
2018-07-21T06:00:36.220Z,1002.01
2018-07-21T06:01:16.643Z,1002.02
2018-07-21T06:01:57.047Z,1002.05
2018-07-21T06:04:09.351Z,1002.1
2018-07-21T06:06:23.756Z,1002.09
2018-07-21T06:07:04.282Z,1002.11
2018-07-21T06:07:44.556Z,1002.07
2018-07-21T06:08:24.982Z,1002.1
2018-07-21T06:09:05.370Z,1002.1
2018-07-21T06:11:06.748Z,1002.1
2018-07-21T06:11:44.518Z,1002.07
2018-07-21T06:12:24.976Z,1002.08
2018-07-21T06:13:05.543Z,1002.03
2018-07-21T06:13:45.884Z,1002.04
2018-07-21T06:14:27.360Z,1002.04
2018-07-21T06:15:07.749Z,1002.07
2018-07-21T06:15:48.415Z,1002.05
2018-07-21T06:17:50.767Z,1002.1
2018-07-21T06:18:30.131Z,1002.11
2018-07-21T06:19:10.564Z,1002.08
2018-07-21T06:19:50.923Z,1002.1
2018-07-21T06:20:31.385Z,1002.13
2018-07-21T06:21:11.745Z,1002.15
2018-07-21T06:21:52.128Z,1002.17
2018-07-21T06:22:32.517Z,1002.15
2018-07-21T06:23:13.006Z,1002.15
2018-07-21T06:23:53.410Z,1002.17
2018-07-21T06:24:33.770Z,1002.17
2018-07-21T06:25:14.299Z,1002.16
2018-07-21T06:25:54.617Z,1002.18
2018-07-21T06:26:35.031Z,1002.17
2018-07-21T06:27:15.422Z,1002.16
2018-07-21T06:27:55.897Z,1002.19
2018-07-21T06:28:36.289Z,1002.18
2018-07-21T06:29:16.676Z,1002.23
2018-07-21T06:31:34.350Z,1002.2
2018-07-21T06:32:14.708Z,1002.21
2018-07-21T06:32:55.197Z,1002.24
2018-07-21T06:33:35.554Z,1002.25
2018-07-21T06:34:15.991Z,1002.24
2018-07-21T06:36:09.193Z,1002.29
2018-07-21T06:36:55.569Z,1002.28
2018-07-21T06:37:36.003Z,1002.32
2018-07-21T06:38:16.391Z,1002.31
2018-07-21T06:38:56.835Z,1002.32
2018-07-21T06:39:37.206Z,1002.41
2018-07-21T06:40:17.639Z,1002.38
2018-07-21T06:40:58.089Z,1002.34
2018-07-21T06:41:38.553Z,1002.37
2018-07-21T06:42:19.019Z,1002.37
2018-07-21T06:42:59.478Z,1002.37
2018-07-21T06:43:39.869Z,1002.36
2018-07-21T06:44:20.272Z,1002.41
2018-07-21T06:45:00.717Z,1002.39
2018-07-21T06:45:41.090Z,1002.42
2018-07-21T06:46:21.520Z,1002.38
2018-07-21T06:47:01.925Z,1002.4
2018-07-21T06:47:42.384Z,1002.4
2018-07-21T06:48:22.782Z,1002.42
2018-07-21T06:50:40.667Z,1002.49
2018-07-21T06:53:11.427Z,1002.46
2018-07-21T06:53:50.549Z,1002.45
2018-07-21T06:54:31.014Z,1002.43
2018-07-21T06:55:11.351Z,1002.41
2018-07-21T06:57:08.780Z,1002.4
2018-07-21T06:57:49.179Z,1002.42
2018-07-21T06:58:29.582Z,1002.4
2018-07-21T06:59:10.131Z,1002.41
2018-07-21T06:59:50.471Z,1002.37
2018-07-21T07:00:30.888Z,1002.36
2018-07-21T07:01:11.239Z,1002.39
2018-07-21T07:01:51.719Z,1002.43
2018-07-21T07:02:32.169Z,1002.43
2018-07-21T07:03:12.585Z,1002.43
2018-07-21T07:03:52.948Z,1002.43
2018-07-21T07:04:33.422Z,1002.42
2018-07-21T07:05:13.791Z,1002.44
2018-07-21T07:05:54.190Z,1002.48
2018-07-21T07:06:34.561Z,1002.48
2018-07-21T07:07:15.001Z,1002.47
2018-07-21T07:07:55.432Z,1002.48
2018-07-21T07:08:35.983Z,1002.46
2018-07-21T07:09:16.299Z,1002.46
2018-07-21T07:09:56.815Z,1002.47
2018-07-21T07:10:37.113Z,1002.46
2018-07-21T07:11:17.569Z,1002.5
2018-07-21T07:11:57.944Z,1002.47
2018-07-21T07:12:38.433Z,1002.47
2018-07-21T07:13:18.816Z,1002.45
2018-07-21T07:13:59.336Z,1002.49
2018-07-21T07:14:39.724Z,1002.46
2018-07-21T07:15:20.073Z,1002.46
2018-07-21T07:16:00.506Z,1002.47
2018-07-21T07:16:40.950Z,1002.46
2018-07-21T07:17:21.386Z,1002.49
2018-07-21T07:18:01.816Z,1002.45
2018-07-21T07:18:42.219Z,1002.44
2018-07-21T07:19:22.674Z,1002.48
2018-07-21T07:20:03.131Z,1002.47
2018-07-21T07:20:43.511Z,1002.47
2018-07-21T07:21:23.964Z,1002.45
2018-07-21T07:22:04.337Z,1002.45
2018-07-21T07:22:44.795Z,1002.44
2018-07-21T07:23:25.229Z,1002.41
2018-07-21T07:24:05.672Z,1002.42
2018-07-21T07:24:46.087Z,1002.44
2018-07-21T07:25:26.509Z,1002.45
2018-07-21T07:26:06.923Z,1002.47
2018-07-21T07:26:47.370Z,1002.45
2018-07-21T07:27:27.830Z,1002.48
2018-07-21T07:28:08.224Z,1002.49
2018-07-21T07:28:48.638Z,1002.51
2018-07-21T07:29:29.061Z,1002.46
2018-07-21T07:30:09.437Z,1002.49
2018-07-21T07:30:49.868Z,1002.45
2018-07-21T07:31:30.316Z,1002.42
2018-07-21T07:32:10.727Z,1002.4
2018-07-21T07:32:51.181Z,1002.39
2018-07-21T07:34:47.234Z,1002.45
2018-07-21T07:35:27.074Z,1002.39
2018-07-21T07:36:08.518Z,1002.44
2018-07-21T07:36:48.911Z,1002.45
2018-07-21T07:39:20.643Z,1002.43
2018-07-21T07:40:00.791Z,1002.52
2018-07-21T07:40:41.387Z,1002.48
2018-07-21T07:41:21.732Z,1002.42
2018-07-21T07:42:02.799Z,1002.44
2018-07-21T07:42:44.018Z,1002.43
2018-07-21T07:43:24.415Z,1002.47
2018-07-21T07:44:04.828Z,1002.44
2018-07-21T07:44:45.276Z,1002.43
2018-07-21T07:45:25.705Z,1002.45
2018-07-21T07:46:06.107Z,1002.43
2018-07-21T07:46:46.543Z,1002.43
2018-07-21T07:47:29.109Z,1002.43
2018-07-21T07:48:09.572Z,1002.4
2018-07-21T07:48:49.993Z,1002.46
2018-07-21T07:49:30.408Z,1002.43
2018-07-21T07:53:15.541Z,1002.41
2018-07-21T07:53:55.692Z,1002.43
2018-07-21T07:54:36.832Z,1002.39
2018-07-21T07:55:17.289Z,1002.43
2018-07-21T07:57:49.749Z,1002.4
2018-07-21T08:01:18.685Z,1002.39
2018-07-21T08:06:30.637Z,1002.3
2018-07-21T08:07:10.830Z,1002.27
2018-07-21T08:11:13.919Z,1002.24
2018-07-21T08:11:56.514Z,1002.25
2018-07-21T08:12:36.890Z,1002.25
2018-07-21T08:13:17.348Z,1002.27
2018-07-21T08:13:57.870Z,1002.25
2018-07-21T08:14:39.125Z,1002.25
2018-07-21T08:15:19.450Z,1002.22
2018-07-21T08:16:01.286Z,1002.22
2018-07-21T08:16:41.656Z,1002.23
2018-07-21T08:18:37.608Z,1002.25
2018-07-21T08:19:18.297Z,1002.24
2018-07-21T08:19:58.807Z,1002.2
2018-07-21T08:20:41.273Z,1002.21
2018-07-21T08:21:21.948Z,1002.2
2018-07-21T08:22:02.314Z,1002.2
2018-07-21T08:22:44.732Z,1002.2
2018-07-21T08:23:25.178Z,1002.21
2018-07-21T08:24:06.043Z,1002.18
2018-07-21T08:24:47.125Z,1002.18
2018-07-21T08:25:27.608Z,1002.19
2018-07-21T08:26:08.035Z,1002.17
2018-07-21T08:26:48.469Z,1002.1
2018-07-21T08:27:29.868Z,1002.1
2018-07-21T08:28:12.799Z,1002.13
2018-07-21T08:28:53.203Z,1002.11
2018-07-21T08:29:35.612Z,1002.13
2018-07-21T08:30:16.258Z,1002.13
2018-07-21T08:31:53.098Z,1002.13
2018-07-21T08:36:37.818Z,1002.06
2018-07-21T08:37:16.258Z,1002.08
2018-07-21T08:37:56.730Z,1002.05
2018-07-21T08:38:38.697Z,1002.03
2018-07-21T08:39:20.440Z,1002.05
2018-07-21T08:40:00.902Z,1002.06
2018-07-21T08:40:41.337Z,1002.04
2018-07-21T08:41:21.813Z,1002.06
2018-07-21T08:42:02.304Z,1002.02
2018-07-21T08:42:42.743Z,1002.09
2018-07-21T08:43:23.162Z,1002.09
2018-07-21T08:44:03.565Z,1002.1
2018-07-21T08:44:44.070Z,1002.09
2018-07-21T08:45:24.481Z,1002.11
2018-07-21T08:46:04.963Z,1002.1
2018-07-21T08:46:45.326Z,1002.07
2018-07-21T08:47:25.848Z,1002.1
2018-07-21T08:48:06.318Z,1002.11
2018-07-21T08:48:46.699Z,1002.09
2018-07-21T08:49:27.160Z,1002.09
2018-07-21T08:53:19.601Z,1002.1
2018-07-21T08:54:00.328Z,1002.1
2018-07-21T08:54:40.778Z,1002.1
2018-07-21T08:55:21.250Z,1002.11
2018-07-21T08:56:02.372Z,1002.12
2018-07-21T08:56:42.769Z,1002.15
2018-07-21T08:57:26.296Z,1002.17
2018-07-21T08:58:11.836Z,1002.14
2018-07-21T08:58:52.573Z,1002.12
2018-07-21T08:59:32.846Z,1002.1
2018-07-21T09:00:13.356Z,1002.11
2018-07-21T09:00:54.573Z,1002.1
2018-07-21T09:01:35.428Z,1002.1
2018-07-21T09:06:12.143Z,1002.09
2018-07-21T09:06:52.582Z,1002.06
2018-07-21T09:07:33.016Z,1002.06
2018-07-21T09:08:13.781Z,1002.07
2018-07-21T09:08:54.204Z,1002.06
2018-07-21T09:09:34.939Z,1002.1
2018-07-21T09:10:15.856Z,1002.05
2018-07-21T09:10:59.355Z,1002.05
2018-07-21T09:11:39.846Z,1002.06
2018-07-21T09:12:20.432Z,1002.07
2018-07-21T09:13:01.151Z,1002.05
2018-07-21T09:13:41.576Z,1002.05
2018-07-21T09:14:24.638Z,1002.04
2018-07-21T09:15:05.076Z,1002.03
2018-07-21T09:15:45.486Z,1002.05
2018-07-21T09:16:26.863Z,1002.05
2018-07-21T09:17:07.480Z,1002.04
2018-07-21T09:17:48.212Z,1002.01
2018-07-21T09:18:28.681Z,1001.99
2018-07-21T09:19:09.205Z,1001.99
2018-07-21T09:19:49.807Z,1001.99
2018-07-21T09:20:31.678Z,1002.02
2018-07-21T09:21:12.270Z,1001.98
2018-07-21T09:21:52.794Z,1001.98
2018-07-21T09:22:33.313Z,1002
2018-07-21T09:23:13.764Z,1002
2018-07-21T09:23:54.154Z,1001.97
2018-07-21T09:24:34.905Z,1001.99
2018-07-21T09:25:19.001Z,1001.99
2018-07-21T09:25:59.327Z,1001.98
2018-07-21T09:26:40.151Z,1001.99
2018-07-21T09:27:20.605Z,1002
2018-07-21T09:28:01.096Z,1002.01
2018-07-21T09:28:41.477Z,1002.02
2018-07-21T09:29:21.931Z,1002
2018-07-21T09:30:02.531Z,1002.02
2018-07-21T09:30:45.094Z,1002.03
2018-07-21T09:31:25.672Z,1002.07
2018-07-21T09:32:06.138Z,1002.04
2018-07-21T09:32:46.503Z,1002.05
2018-07-21T09:33:29.701Z,1002.06
2018-07-21T09:34:10.231Z,1002.04
2018-07-21T09:34:50.939Z,1002.03
2018-07-21T09:35:31.491Z,1002.01
2018-07-21T09:36:12.464Z,1002.05
2018-07-21T09:36:52.575Z,1002.03
2018-07-21T09:37:33.215Z,1002.05
2018-07-21T09:38:14.433Z,1002.03
2018-07-21T09:38:54.931Z,1002.06
2018-07-21T09:39:35.387Z,1002.03
2018-07-21T09:40:16.084Z,1002.05
2018-07-21T09:40:58.891Z,1002.07
2018-07-21T09:45:37.579Z,1002.07
2018-07-21T09:46:18.127Z,1002.09
2018-07-21T09:46:58.455Z,1002.09
2018-07-21T09:47:40.937Z,1002.07
2018-07-21T09:48:21.474Z,1002.08
2018-07-21T09:49:02.073Z,1002.08
2018-07-21T09:49:42.906Z,1002.08
2018-07-21T09:50:29.097Z,1002.05
2018-07-21T09:51:10.680Z,1002.04
2018-07-21T09:52:03.045Z,1002.06
2018-07-21T09:52:42.724Z,1002.02
2018-07-21T09:53:23.227Z,1002.03
2018-07-21T09:54:03.842Z,1002
2018-07-21T09:54:44.302Z,1002.01
2018-07-21T09:55:24.992Z,1002.01
2018-07-21T09:56:05.511Z,1001.98
2018-07-21T09:56:46.008Z,1002.02
2018-07-21T09:57:28.749Z,1002.02
2018-07-21T09:58:10.060Z,1002.02
2018-07-21T09:58:49.815Z,1002.07
2018-07-21T09:59:35.049Z,1002.03
2018-07-21T10:00:15.233Z,1002.04
2018-07-21T10:00:56.524Z,1002.05
2018-07-21T10:01:40.668Z,1002
2018-07-21T10:02:21.110Z,1002.07
2018-07-21T10:03:13.547Z,1002.01
2018-07-21T10:03:53.031Z,1002.06
2018-07-21T10:04:33.511Z,1002.05
2018-07-21T10:05:15.274Z,1002.05
2018-07-21T10:50:58.799Z,1002.09
2018-07-21T10:51:39.213Z,1002.11
2018-07-21T10:52:22.232Z,1002.1
2018-07-21T10:53:02.662Z,1002.1
2018-07-21T10:53:45.320Z,1002.06
2018-07-21T10:54:24.155Z,1002.07
2018-07-21T10:55:04.576Z,1002.06
2018-07-21T10:55:45.064Z,1002.1
2018-07-21T10:56:26.306Z,1002.1
2018-07-21T10:57:07.179Z,1002.06
2018-07-21T10:57:47.555Z,1002.03
2018-07-21T10:58:28.000Z,1002.06
2018-07-21T10:59:12.398Z,1002.07
2018-07-21T11:00:16.765Z,1002.06
2018-07-21T11:00:57.351Z,1002.02
2018-07-21T11:01:42.147Z,1002.01
2018-07-21T11:04:01.523Z,1002
2018-07-21T11:04:41.985Z,1001.97
2018-07-21T11:05:22.360Z,1001.94
2018-07-21T11:06:02.708Z,1001.99
2018-07-21T11:06:43.191Z,1001.97
2018-07-21T11:07:23.613Z,1002.01
2018-07-21T11:08:04.085Z,1002
2018-07-21T11:08:44.488Z,1002.01
2018-07-21T11:09:24.917Z,1002.03
2018-07-21T11:10:05.319Z,1002.04
2018-07-21T11:10:45.773Z,1002.08
2018-07-21T11:11:26.261Z,1002.03
2018-07-21T11:12:06.625Z,1002.07
2018-07-21T11:12:47.013Z,1001.97
2018-07-21T11:13:27.430Z,1002.04